createdAt,value
2018-06-16T00:00:14.570Z,8.00
2018-06-16T00:01:14.895Z,8.00
2018-06-16T00:02:15.145Z,8.00
2018-06-16T00:03:14.460Z,8.00
2018-06-16T00:04:14.693Z,8.00
2018-06-16T00:06:14.619Z,8.00
2018-06-16T00:07:14.800Z,8.00
2018-06-16T00:08:15.083Z,8.00
2018-06-16T00:09:14.665Z,8.00
2018-06-16T00:11:14.742Z,8.00
2018-06-16T00:12:14.723Z,8.00
2018-06-16T00:14:15.547Z,8.00
2018-06-16T00:15:14.876Z,8.00
2018-06-16T00:16:14.910Z,8.00
2018-06-16T00:18:14.926Z,8.00
2018-06-16T00:19:15.622Z,4.00
2018-06-16T00:20:15.496Z,0.00
2018-06-16T00:21:15.381Z,0.00
2018-06-16T00:23:15.351Z,0.00
2018-06-16T00:24:15.334Z,0.00
2018-06-16T00:25:15.163Z,0.00
2018-06-16T00:26:15.499Z,0.00
2018-06-16T00:27:15.290Z,0.00
2018-06-16T00:28:15.268Z,0.00
2018-06-16T00:30:15.396Z,0.00
2018-06-16T00:31:15.419Z,0.00
2018-06-16T00:32:15.711Z,0.00
2018-06-16T00:33:15.801Z,0.00
2018-06-16T00:34:15.722Z,0.00
2018-06-16T00:35:15.504Z,0.00
2018-06-16T00:36:15.591Z,0.00
2018-06-16T00:37:15.567Z,0.00
2018-06-16T00:38:15.853Z,0.00
2018-06-16T00:39:15.640Z,0.00
2018-06-16T00:40:15.679Z,0.00
2018-06-16T00:41:15.759Z,0.00
2018-06-16T00:42:15.740Z,0.00
2018-06-16T00:43:16.016Z,0.00
2018-06-16T00:44:16.050Z,0.00
2018-06-16T00:45:15.848Z,0.00
2018-06-16T00:46:15.917Z,0.00
2018-06-16T00:47:15.911Z,0.00
2018-06-16T00:48:15.983Z,0.00
2018-06-16T00:49:16.018Z,0.00
2018-06-16T00:50:16.254Z,0.00
2018-06-16T00:51:16.089Z,0.00
2018-06-16T00:52:16.066Z,0.00
2018-06-16T00:53:16.104Z,0.00
2018-06-16T00:54:16.140Z,0.00
2018-06-16T00:55:16.169Z,0.00
2018-06-16T00:56:16.504Z,0.00
2018-06-16T00:57:16.282Z,0.00
2018-06-16T00:59:16.552Z,0.00
2018-06-16T01:00:16.376Z,0.00
2018-06-16T01:01:16.415Z,0.00
2018-06-16T01:02:16.596Z,0.00
2018-06-16T01:03:17.084Z,0.00
2018-06-16T01:04:17.118Z,0.00
2018-06-16T01:05:16.544Z,0.00
2018-06-16T01:06:17.081Z,0.00
2018-06-16T01:08:17.145Z,0.00
2018-06-16T01:09:16.877Z,0.00
2018-06-16T01:10:17.008Z,0.00
2018-06-16T01:11:17.153Z,0.00
2018-06-16T01:12:16.975Z,0.00
2018-06-16T01:13:16.758Z,0.00
2018-06-16T01:14:16.836Z,0.00
2018-06-16T01:15:17.275Z,0.00
2018-06-16T01:16:16.917Z,0.00
2018-06-16T01:17:17.187Z,0.00
2018-06-16T01:18:16.980Z,0.00
2018-06-16T01:19:17.000Z,0.00
2018-06-16T01:21:17.333Z,0.00
2018-06-16T01:22:18.010Z,0.00
2018-06-16T01:23:17.331Z,0.00
2018-06-16T01:25:17.530Z,0.00
2018-06-16T01:29:17.278Z,0.00
2018-06-16T01:30:17.367Z,0.00
2018-06-16T01:31:17.651Z,0.00
2018-06-16T01:32:17.986Z,0.00
2018-06-16T01:33:17.460Z,0.00
2018-06-16T01:34:17.509Z,0.00
2018-06-16T01:35:17.522Z,0.00
2018-06-16T01:37:18.091Z,0.00
2018-06-16T01:38:17.621Z,0.00
2018-06-16T01:39:17.857Z,0.00
2018-06-16T01:40:17.707Z,0.00
2018-06-16T01:42:17.752Z,0.00
2018-06-16T01:43:17.785Z,0.00
2018-06-16T01:44:18.062Z,0.00
2018-06-16T01:45:18.461Z,0.00
2018-06-16T01:46:18.107Z,0.00
2018-06-16T01:47:17.861Z,0.00
2018-06-16T01:48:17.942Z,0.00
2018-06-16T01:49:17.928Z,0.00
2018-06-16T01:50:18.008Z,0.00
2018-06-16T01:51:18.288Z,0.00
2018-06-16T01:52:18.040Z,0.00
2018-06-16T01:53:18.326Z,0.00
2018-06-16T01:54:18.148Z,0.00
2018-06-16T01:55:18.119Z,0.00
2018-06-16T01:57:18.432Z,0.00
2018-06-16T01:58:18.264Z,0.00
2018-06-16T01:59:18.450Z,0.00
2018-06-16T02:00:18.284Z,0.00
2018-06-16T02:01:18.513Z,0.00
2018-06-16T02:02:18.342Z,0.00
2018-06-16T02:03:18.375Z,0.00
2018-06-16T02:04:18.813Z,0.00
2018-06-16T02:05:18.445Z,0.00
2018-06-16T02:06:18.472Z,0.00
2018-06-16T02:07:18.504Z,0.00
2018-06-16T02:08:18.535Z,0.00
2018-06-16T02:09:18.568Z,0.00
2018-06-16T02:10:18.614Z,0.00
2018-06-16T02:11:18.889Z,0.00
2018-06-16T02:12:18.664Z,0.00
2018-06-16T02:13:18.745Z,0.00
2018-06-16T02:14:18.727Z,0.00
2018-06-16T02:15:18.770Z,0.00
2018-06-16T02:16:18.795Z,0.00
2018-06-16T02:17:18.825Z,0.00
2018-06-16T02:18:19.155Z,0.00
2018-06-16T02:19:18.886Z,0.00
2018-06-16T02:20:18.916Z,0.00
2018-06-16T02:21:18.956Z,0.00
2018-06-16T02:22:18.980Z,0.00
2018-06-16T02:23:19.029Z,0.00
2018-06-16T02:24:19.346Z,0.00
2018-06-16T02:25:19.079Z,0.00
2018-06-16T02:26:19.108Z,0.00
2018-06-16T02:27:19.201Z,0.00
2018-06-16T02:28:19.171Z,0.00
2018-06-16T02:29:19.454Z,0.00
2018-06-16T02:30:19.486Z,0.00
2018-06-16T02:31:19.268Z,0.00
2018-06-16T02:32:19.300Z,0.00
2018-06-16T02:33:19.333Z,0.00
2018-06-16T02:34:19.364Z,0.00
2018-06-16T02:35:19.400Z,0.00
2018-06-16T02:36:19.685Z,0.00
2018-06-16T02:37:19.468Z,0.00
2018-06-16T02:38:19.491Z,0.00
2018-06-16T02:39:19.520Z,0.00
2018-06-16T02:40:19.552Z,0.00
2018-06-16T02:41:19.584Z,0.00
2018-06-16T02:42:19.916Z,0.00
2018-06-16T02:43:19.654Z,0.00
2018-06-16T02:44:19.680Z,0.00
2018-06-16T02:45:19.713Z,0.00
2018-06-16T02:46:19.744Z,0.00
2018-06-16T02:47:19.776Z,4.00
2018-06-16T02:48:20.060Z,4.00
2018-06-16T02:49:19.837Z,4.00
2018-06-16T02:50:19.995Z,4.00
2018-06-16T02:51:19.900Z,0.00
2018-06-16T02:52:19.933Z,4.00
2018-06-16T02:53:20.315Z,4.00
2018-06-16T02:54:20.251Z,4.00
2018-06-16T02:55:20.032Z,8.00
2018-06-16T02:56:20.420Z,4.00
2018-06-16T02:57:20.095Z,8.00
2018-06-16T02:58:20.134Z,8.00
2018-06-16T02:59:20.152Z,8.00
2018-06-16T03:00:20.441Z,12.00
2018-06-16T03:01:20.450Z,16.00
2018-06-16T03:02:20.280Z,12.00
2018-06-16T03:03:20.321Z,12.00
2018-06-16T03:04:20.330Z,16.00
2018-06-16T03:05:20.350Z,16.00
2018-06-16T03:06:20.629Z,24.00
2018-06-16T03:07:20.404Z,24.00
2018-06-16T03:08:20.440Z,24.00
2018-06-16T03:09:20.467Z,28.00
2018-06-16T03:10:20.513Z,32.00
2018-06-16T03:11:20.529Z,36.00
2018-06-16T03:12:20.816Z,40.00
2018-06-16T03:13:20.592Z,40.00
2018-06-16T03:14:20.626Z,44.00
2018-06-16T03:15:20.658Z,44.00
2018-06-16T03:16:20.715Z,48.00
2018-06-16T03:17:20.727Z,56.00
2018-06-16T03:18:21.005Z,56.00
2018-06-16T03:19:20.785Z,64.00
2018-06-16T03:20:20.811Z,68.00
2018-06-16T03:21:20.842Z,72.00
2018-06-16T03:22:20.879Z,80.00
2018-06-16T03:23:20.933Z,88.00
2018-06-16T03:24:20.937Z,92.00
2018-06-16T03:25:20.971Z,92.00
2018-06-16T03:26:21.001Z,100.00
2018-06-16T03:27:21.044Z,100.00
2018-06-16T03:28:21.067Z,108.00
2018-06-16T03:29:21.133Z,112.00
2018-06-16T03:30:21.376Z,116.00
2018-06-16T03:31:21.176Z,124.00
2018-06-16T03:32:21.195Z,132.00
2018-06-16T03:33:21.279Z,144.00
2018-06-16T03:34:21.261Z,148.00
2018-06-16T03:35:21.289Z,160.00
2018-06-16T03:36:21.598Z,168.00
2018-06-16T03:37:21.356Z,184.00
2018-06-16T03:38:21.379Z,192.00
2018-06-16T03:39:21.413Z,204.00
2018-06-16T03:40:21.447Z,216.00
2018-06-16T03:41:21.475Z,228.00
2018-06-16T03:42:21.505Z,240.00
2018-06-16T03:43:21.792Z,252.00
2018-06-16T03:44:21.564Z,264.00
2018-06-16T03:45:21.595Z,280.00
2018-06-16T03:46:21.631Z,288.00
2018-06-16T03:47:21.657Z,304.00
2018-06-16T03:48:21.691Z,312.00
2018-06-16T03:49:21.721Z,324.00
2018-06-16T03:50:22.109Z,332.00
2018-06-16T03:51:21.787Z,348.00
2018-06-16T03:52:21.817Z,356.00
2018-06-16T03:53:21.850Z,376.00
2018-06-16T03:54:21.903Z,388.00
2018-06-16T03:55:21.919Z,404.00
2018-06-16T03:56:21.940Z,424.00
2018-06-16T03:57:22.221Z,440.00
2018-06-16T03:58:22.014Z,464.00
2018-06-16T03:59:22.036Z,480.00
2018-06-16T04:00:22.072Z,496.00
2018-06-16T04:01:22.095Z,508.00
2018-06-16T04:02:22.187Z,516.00
2018-06-16T04:03:22.162Z,524.00
2018-06-16T04:04:22.449Z,528.00
2018-06-16T04:05:22.321Z,536.00
2018-06-16T04:06:22.254Z,548.00
2018-06-16T04:07:22.283Z,560.00
2018-06-16T04:08:22.323Z,580.00
2018-06-16T04:09:22.345Z,600.00
2018-06-16T04:10:22.379Z,624.00
2018-06-16T04:11:22.709Z,648.00
2018-06-16T04:12:22.448Z,684.00
2018-06-16T04:13:22.470Z,712.00
2018-06-16T04:14:22.502Z,736.00
2018-06-16T04:15:22.536Z,768.00
2018-06-16T04:16:22.566Z,784.00
2018-06-16T04:17:22.638Z,796.00
2018-06-16T04:18:22.935Z,816.00
2018-06-16T04:19:22.658Z,824.00
2018-06-16T04:20:22.691Z,832.00
2018-06-16T04:21:22.827Z,848.00
2018-06-16T04:22:22.759Z,860.00
2018-06-16T04:23:22.783Z,872.00
2018-06-16T04:24:22.816Z,884.00
2018-06-16T04:25:23.100Z,896.00
2018-06-16T04:26:22.879Z,912.00
2018-06-16T04:27:22.910Z,936.00
2018-06-16T04:28:22.947Z,960.00
2018-06-16T04:29:22.975Z,976.00
2018-06-16T04:30:23.006Z,988.00
2018-06-16T04:31:23.037Z,1004.00
2018-06-16T04:32:23.392Z,1020.00
2018-06-16T04:33:23.137Z,1032.00
2018-06-16T04:34:23.132Z,1044.00
2018-06-16T04:35:23.165Z,1052.00
2018-06-16T04:36:23.207Z,1052.00
2018-06-16T04:37:23.229Z,1056.00
2018-06-16T04:38:23.281Z,1060.00
2018-06-16T04:39:23.593Z,1064.00
2018-06-16T04:40:23.337Z,1060.00
2018-06-16T04:41:23.375Z,1056.00
2018-06-16T04:42:23.393Z,1056.00
2018-06-16T04:43:23.419Z,1056.00
2018-06-16T04:44:23.507Z,1068.00
2018-06-16T04:45:23.548Z,1072.00
2018-06-16T04:46:23.902Z,1076.00
2018-06-16T04:47:23.566Z,1088.00
2018-06-16T04:48:23.583Z,1104.00
2018-06-16T04:49:23.613Z,1120.00
2018-06-16T04:50:23.643Z,1136.00
2018-06-16T04:51:23.684Z,1156.00
2018-06-16T04:52:23.741Z,1184.00
2018-06-16T04:53:24.039Z,1216.00
2018-06-16T04:54:23.770Z,1248.00
2018-06-16T04:55:23.826Z,1276.00
2018-06-16T04:56:23.836Z,1300.00
2018-06-16T04:57:23.947Z,1328.00
2018-06-16T04:58:23.900Z,1352.00
2018-06-16T04:59:24.232Z,1376.00
2018-06-16T05:00:23.963Z,1408.00
2018-06-16T05:01:24.010Z,1444.00
2018-06-16T05:02:24.081Z,1480.00
2018-06-16T05:03:24.064Z,1520.00
2018-06-16T05:04:24.094Z,1568.00
2018-06-16T05:05:24.381Z,1612.00
2018-06-16T05:06:24.161Z,1648.00
2018-06-16T05:07:24.207Z,1672.00
2018-06-16T05:08:24.236Z,1688.00
2018-06-16T05:09:24.289Z,1688.00
2018-06-16T05:10:24.291Z,1688.00
2018-06-16T05:11:24.577Z,1688.00
2018-06-16T05:12:24.384Z,1700.00
2018-06-16T05:13:24.437Z,1708.00
2018-06-16T05:14:24.447Z,1732.00
2018-06-16T05:15:24.454Z,1760.00
2018-06-16T05:16:24.486Z,1792.00
2018-06-16T05:17:24.825Z,1820.00
2018-06-16T05:18:24.552Z,1852.00
2018-06-16T05:19:24.684Z,1876.00
2018-06-16T05:20:24.617Z,1896.00
2018-06-16T05:21:24.648Z,1912.00
2018-06-16T05:22:24.700Z,1936.00
2018-06-16T05:23:25.020Z,1984.00
2018-06-16T05:24:24.748Z,2024.00
2018-06-16T05:25:24.781Z,2076.00
2018-06-16T05:26:24.836Z,2120.00
2018-06-16T05:27:24.848Z,2136.00
2018-06-16T05:28:24.880Z,2156.00
2018-06-16T05:29:25.217Z,2160.00
2018-06-16T05:30:24.953Z,2144.00
2018-06-16T05:31:24.977Z,2120.00
2018-06-16T05:32:25.012Z,2096.00
2018-06-16T05:33:25.047Z,2108.00
2018-06-16T05:34:25.088Z,2112.00
2018-06-16T05:35:25.414Z,2160.00
2018-06-16T05:36:25.142Z,2212.00
2018-06-16T05:37:25.181Z,2236.00
2018-06-16T05:38:25.268Z,2256.00
2018-06-16T05:39:25.241Z,2288.00
2018-06-16T05:40:25.276Z,2336.00
2018-06-16T05:41:25.614Z,2324.00
2018-06-16T05:42:25.370Z,2352.00
2018-06-16T05:43:25.429Z,2356.00
2018-06-16T05:44:25.431Z,2352.00
2018-06-16T05:45:25.440Z,2324.00
2018-06-16T05:46:25.481Z,2308.00
2018-06-16T05:47:25.836Z,2296.00
2018-06-16T05:48:25.546Z,2264.00
2018-06-16T05:49:25.590Z,2220.00
2018-06-16T05:50:25.610Z,2184.00
2018-06-16T05:51:25.656Z,2164.00
2018-06-16T05:52:25.676Z,2184.00
2018-06-16T05:53:26.034Z,2236.00
2018-06-16T05:54:25.741Z,2284.00
2018-06-16T05:55:25.792Z,2332.00
2018-06-16T05:56:25.805Z,2348.00
2018-06-16T05:57:25.839Z,2428.00
2018-06-16T05:58:25.871Z,2424.00
2018-06-16T05:59:26.158Z,2416.00
2018-06-16T06:00:25.961Z,2368.00
2018-06-16T06:01:25.971Z,2384.00
2018-06-16T06:02:26.007Z,2432.00
2018-06-16T06:03:26.042Z,2472.00
2018-06-16T06:04:26.094Z,2492.00
2018-06-16T06:05:26.414Z,2504.00
2018-06-16T06:06:26.136Z,2508.00
2018-06-16T06:07:26.169Z,2552.00
2018-06-16T06:08:26.205Z,2636.00
2018-06-16T06:09:26.238Z,2744.00
2018-06-16T06:10:26.306Z,2904.00
2018-06-16T06:11:26.567Z,3084.00
2018-06-16T06:12:26.349Z,3216.00
2018-06-16T06:13:26.380Z,3288.00
2018-06-16T06:14:26.420Z,3256.00
2018-06-16T06:15:26.436Z,3188.00
2018-06-16T06:16:26.475Z,3152.00
2018-06-16T06:17:26.507Z,3160.00
2018-06-16T06:18:26.838Z,3244.00
2018-06-16T06:19:26.570Z,3248.00
2018-06-16T06:20:26.658Z,3212.00
2018-06-16T06:21:26.637Z,3152.00
2018-06-16T06:22:26.677Z,3148.00
2018-06-16T06:23:26.703Z,3212.00
2018-06-16T06:24:26.741Z,3204.00
2018-06-16T06:25:27.020Z,3156.00
2018-06-16T06:26:26.810Z,3176.00
2018-06-16T06:27:26.891Z,3172.00
2018-06-16T06:28:26.872Z,3060.00
2018-06-16T06:29:26.909Z,3088.00
2018-06-16T06:30:26.942Z,3144.00
2018-06-16T06:31:27.195Z,3172.00
2018-06-16T06:32:27.256Z,3196.00
2018-06-16T06:33:27.045Z,3272.00
2018-06-16T06:34:27.078Z,3372.00
2018-06-16T06:35:27.119Z,3488.00
2018-06-16T06:36:27.139Z,3632.00
2018-06-16T06:37:27.414Z,3728.00
2018-06-16T06:38:27.209Z,3668.00
2018-06-16T06:39:27.496Z,3648.00
2018-06-16T06:40:27.277Z,3596.00
2018-06-16T06:41:27.314Z,3672.00
2018-06-16T06:42:27.351Z,3740.00
2018-06-16T06:43:27.424Z,3756.00
2018-06-16T06:44:27.419Z,3740.00
2018-06-16T06:45:27.576Z,3708.00
2018-06-16T06:46:27.794Z,3612.00
2018-06-16T06:47:27.699Z,3596.00
2018-06-16T06:48:27.850Z,3600.00
2018-06-16T06:49:27.584Z,3612.00
2018-06-16T06:50:27.617Z,3584.00
2018-06-16T06:51:27.655Z,3480.00
2018-06-16T06:52:27.793Z,3368.00
2018-06-16T06:53:28.037Z,3276.00
2018-06-16T06:54:27.762Z,3200.00
2018-06-16T06:55:27.809Z,3152.00
2018-06-16T06:56:27.886Z,3268.00
2018-06-16T06:57:27.858Z,3356.00
2018-06-16T06:58:27.966Z,3424.00
2018-06-16T06:59:27.946Z,3708.00
2018-06-16T07:00:28.271Z,3960.00
2018-06-16T07:01:27.994Z,4120.00
2018-06-16T07:02:28.020Z,4084.00
2018-06-16T07:03:28.054Z,4308.00
2018-06-16T07:04:28.088Z,4252.00
2018-06-16T07:05:28.125Z,4204.00
2018-06-16T07:06:28.160Z,4064.00
2018-06-16T07:07:28.443Z,4348.00
2018-06-16T07:08:28.225Z,4508.00
2018-06-16T07:09:28.298Z,4336.00
2018-06-16T07:10:28.314Z,4112.00
2018-06-16T07:11:28.339Z,4100.00
2018-06-16T07:12:28.358Z,4016.00
2018-06-16T07:13:28.397Z,3920.00
2018-06-16T07:14:28.679Z,3916.00
2018-06-16T07:15:28.467Z,3804.00
2018-06-16T07:16:28.499Z,3592.00
2018-06-16T07:17:28.536Z,3432.00
2018-06-16T07:18:28.578Z,3380.00
2018-06-16T07:19:28.612Z,3416.00
2018-06-16T07:20:28.640Z,3500.00
2018-06-16T07:21:28.919Z,3628.00
2018-06-16T07:22:28.706Z,3752.00
2018-06-16T07:23:28.749Z,3776.00
2018-06-16T07:24:28.784Z,3744.00
2018-06-16T07:25:28.807Z,3712.00
2018-06-16T07:26:28.848Z,3648.00
2018-06-16T07:27:28.875Z,3608.00
2018-06-16T07:28:29.166Z,3620.00
2018-06-16T07:29:28.993Z,3724.00
2018-06-16T07:30:28.975Z,3728.00
2018-06-16T07:31:29.011Z,3808.00
2018-06-16T07:32:29.052Z,3860.00
2018-06-16T07:33:29.429Z,3876.00
2018-06-16T07:34:29.114Z,3916.00
2018-06-16T07:35:29.397Z,3956.00
2018-06-16T07:36:29.182Z,4008.00
2018-06-16T07:37:29.220Z,4004.00
2018-06-16T07:38:29.251Z,4008.00
2018-06-16T07:39:29.289Z,4004.00
2018-06-16T07:40:29.346Z,3904.00
2018-06-16T07:41:29.818Z,3812.00
2018-06-16T07:42:29.405Z,3792.00
2018-06-16T07:43:29.421Z,3760.00
2018-06-16T07:44:29.457Z,3684.00
2018-06-16T07:45:29.494Z,3600.00
2018-06-16T07:46:29.539Z,3620.00
2018-06-16T07:47:29.807Z,3624.00
2018-06-16T07:48:29.596Z,3748.00
2018-06-16T07:49:29.636Z,3896.00
2018-06-16T07:50:29.665Z,4052.00
2018-06-16T07:51:29.699Z,4244.00
2018-06-16T07:52:29.735Z,4400.00
2018-06-16T07:53:30.018Z,4620.00
2018-06-16T07:54:29.800Z,4736.00
2018-06-16T07:55:29.833Z,4740.00
2018-06-16T07:56:29.893Z,4736.00
2018-06-16T07:57:29.904Z,4732.00
2018-06-16T07:58:30.120Z,4688.00
2018-06-16T07:59:30.221Z,4632.00
2018-06-16T08:00:30.065Z,4536.00
2018-06-16T08:01:30.050Z,4484.00
2018-06-16T08:02:30.078Z,4424.00
2018-06-16T08:03:30.120Z,4416.00
2018-06-16T08:04:30.141Z,4416.00
2018-06-16T08:05:30.430Z,4320.00
2018-06-16T08:06:30.215Z,4304.00
2018-06-16T08:07:30.246Z,4292.00
2018-06-16T08:08:30.283Z,4196.00
2018-06-16T08:09:30.317Z,4088.00
2018-06-16T08:10:30.358Z,4032.00
2018-06-16T08:11:30.885Z,3968.00
2018-06-16T08:12:30.426Z,3924.00
2018-06-16T08:13:30.460Z,3912.00
2018-06-16T08:14:30.509Z,3952.00
2018-06-16T08:15:30.521Z,3940.00
2018-06-16T08:16:30.567Z,3908.00
2018-06-16T08:17:30.745Z,3880.00
2018-06-16T08:18:30.631Z,3828.00
2018-06-16T08:19:30.666Z,3788.00
2018-06-16T08:20:30.708Z,3760.00
2018-06-16T08:21:30.732Z,3768.00
2018-06-16T08:22:30.770Z,3776.00
2018-06-16T08:23:31.057Z,3840.00
2018-06-16T08:24:30.882Z,3884.00
2018-06-16T08:25:30.872Z,3924.00
2018-06-16T08:26:30.913Z,3960.00
2018-06-16T08:27:30.939Z,3996.00
2018-06-16T08:28:30.976Z,4004.00
2018-06-16T08:29:31.310Z,3952.00
2018-06-16T08:30:31.151Z,4000.00
2018-06-16T08:31:31.122Z,3984.00
2018-06-16T08:32:31.128Z,3964.00
2018-06-16T08:33:31.160Z,3936.00
2018-06-16T08:34:31.192Z,4008.00
2018-06-16T08:35:31.521Z,4036.00
2018-06-16T08:36:31.260Z,4076.00
2018-06-16T08:37:31.330Z,4120.00
2018-06-16T08:38:31.331Z,4140.00
2018-06-16T08:39:31.358Z,4188.00
2018-06-16T08:40:31.437Z,4192.00
2018-06-16T08:41:31.908Z,4204.00
2018-06-16T08:42:31.460Z,4240.00
2018-06-16T08:43:31.493Z,4236.00
2018-06-16T08:44:31.527Z,4304.00
2018-06-16T08:45:31.566Z,4316.00
2018-06-16T08:46:31.598Z,4344.00
2018-06-16T08:47:31.882Z,4376.00
2018-06-16T08:48:31.664Z,4400.00
2018-06-16T08:49:31.725Z,4412.00
2018-06-16T08:50:31.738Z,4460.00
2018-06-16T08:51:31.831Z,4456.00
2018-06-16T08:52:31.804Z,4424.00
2018-06-16T08:53:32.140Z,4376.00
2018-06-16T08:54:31.886Z,4352.00
2018-06-16T08:55:31.946Z,4364.00
2018-06-16T08:56:31.940Z,4392.00
2018-06-16T08:57:32.050Z,4468.00
2018-06-16T08:58:32.013Z,4536.00
2018-06-16T08:59:32.247Z,4664.00
2018-06-16T09:00:32.395Z,4744.00
2018-06-16T09:01:32.118Z,4796.00
2018-06-16T09:02:32.155Z,4876.00
2018-06-16T09:03:32.187Z,4972.00
2018-06-16T09:04:32.365Z,5080.00
2018-06-16T09:05:32.262Z,5112.00
2018-06-16T09:06:32.404Z,5072.00
2018-06-16T09:07:32.583Z,5012.00
2018-06-16T09:08:32.372Z,5024.00
2018-06-16T09:09:32.396Z,5044.00
2018-06-16T09:10:32.434Z,5064.00
2018-06-16T09:11:32.547Z,5096.00
2018-06-16T09:12:32.500Z,5120.00
2018-06-16T09:13:32.547Z,5152.00
2018-06-16T09:14:32.918Z,5080.00
2018-06-16T09:15:32.605Z,5056.00
2018-06-16T09:16:32.641Z,5064.00
2018-06-16T09:17:32.682Z,5172.00
2018-06-16T09:18:32.728Z,5284.00
2018-06-16T09:19:32.747Z,5464.00
2018-06-16T09:20:32.776Z,5584.00
2018-06-16T09:21:33.116Z,5624.00
2018-06-16T09:22:32.908Z,5540.00
2018-06-16T09:23:32.913Z,5420.00
2018-06-16T09:24:32.913Z,5316.00
2018-06-16T09:25:32.948Z,5236.00
2018-06-16T09:26:32.991Z,5144.00
2018-06-16T09:27:33.024Z,5088.00
2018-06-16T09:28:33.304Z,5092.00
2018-06-16T09:29:33.191Z,5156.00
2018-06-16T09:30:33.124Z,5288.00
2018-06-16T09:31:33.160Z,5492.00
2018-06-16T09:32:33.198Z,5760.00
2018-06-16T09:33:33.241Z,5996.00
2018-06-16T09:34:33.266Z,6100.00
2018-06-16T09:35:33.604Z,6012.00
2018-06-16T09:36:33.334Z,5872.00
2018-06-16T09:37:33.366Z,5824.00
2018-06-16T09:38:33.404Z,5976.00
2018-06-16T09:39:33.438Z,6256.00
2018-06-16T09:40:33.473Z,6476.00
2018-06-16T09:41:33.509Z,6612.00
2018-06-16T09:42:33.846Z,6516.00
2018-06-16T09:43:33.578Z,6328.00
2018-06-16T09:44:33.677Z,6164.00
2018-06-16T09:45:33.757Z,6112.00
2018-06-16T09:46:33.684Z,6164.00
2018-06-16T09:47:33.716Z,6248.00
2018-06-16T09:48:33.760Z,6324.00
2018-06-16T09:49:34.091Z,6180.00
2018-06-16T09:50:33.823Z,6012.00
2018-06-16T09:51:33.856Z,5996.00
2018-06-16T09:52:33.898Z,5912.00
2018-06-16T09:53:33.926Z,5580.00
2018-06-16T09:54:33.962Z,5508.00
2018-06-16T09:55:34.011Z,5564.00
2018-06-16T09:56:34.282Z,5748.00
2018-06-16T09:57:34.079Z,5980.00
2018-06-16T09:58:34.104Z,6268.00
2018-06-16T09:59:34.140Z,6544.00
2018-06-16T10:00:34.182Z,6812.00
2018-06-16T10:01:34.327Z,6920.00
2018-06-16T10:02:34.246Z,6832.00
2018-06-16T10:03:34.586Z,6588.00
2018-06-16T10:04:34.313Z,6252.00
2018-06-16T10:05:34.392Z,5976.00
2018-06-16T10:06:34.400Z,5908.00
2018-06-16T10:07:34.418Z,6096.00
2018-06-16T10:08:34.453Z,6144.00
2018-06-16T10:09:34.489Z,5952.00
2018-06-16T10:10:34.775Z,5928.00
2018-06-16T10:11:34.561Z,5872.00
2018-06-16T10:12:34.596Z,5764.00
2018-06-16T10:13:34.636Z,5772.00
2018-06-16T10:14:34.665Z,5732.00
2018-06-16T10:15:34.708Z,5620.00
2018-06-16T10:16:34.738Z,5756.00
2018-06-16T10:17:35.031Z,5928.00
2018-06-16T10:18:34.807Z,6052.00
2018-06-16T10:19:34.844Z,6144.00
2018-06-16T10:20:34.878Z,6288.00
2018-06-16T10:21:35.064Z,6348.00
2018-06-16T10:22:34.950Z,6168.00
2018-06-16T10:23:35.235Z,6144.00
2018-06-16T10:24:35.019Z,6104.00
2018-06-16T10:25:35.052Z,6136.00
2018-06-16T10:26:35.090Z,6108.00
2018-06-16T10:27:35.423Z,6064.00
2018-06-16T10:28:35.169Z,6068.00
2018-06-16T10:29:35.493Z,6100.00
2018-06-16T10:30:35.230Z,6224.00
2018-06-16T10:31:35.276Z,6236.00
2018-06-16T10:32:35.302Z,6268.00
2018-06-16T10:33:35.336Z,6384.00
2018-06-16T10:34:35.369Z,6568.00
2018-06-16T10:35:35.658Z,6768.00
2018-06-16T10:36:35.440Z,7028.00
2018-06-16T10:37:35.486Z,7164.00
2018-06-16T10:38:35.665Z,7208.00
2018-06-16T10:39:35.546Z,7164.00
2018-06-16T10:40:35.582Z,7176.00
2018-06-16T10:41:35.919Z,7260.00
2018-06-16T10:42:35.653Z,7420.00
2018-06-16T10:43:35.687Z,7536.00
2018-06-16T10:44:35.724Z,7548.00
2018-06-16T10:45:35.759Z,7660.00
2018-06-16T10:46:35.794Z,7784.00
2018-06-16T10:47:36.130Z,7960.00
2018-06-16T10:48:35.863Z,8092.00
2018-06-16T10:49:35.902Z,8168.00
2018-06-16T10:50:35.935Z,8268.00
2018-06-16T10:51:35.974Z,8460.00
2018-06-16T10:52:36.006Z,8700.00
2018-06-16T10:53:36.350Z,8772.00
2018-06-16T10:54:36.078Z,8660.00
2018-06-16T10:55:36.161Z,8564.00
2018-06-16T10:56:36.147Z,8588.00
2018-06-16T10:57:36.182Z,8428.00
2018-06-16T10:58:36.223Z,8328.00
2018-06-16T10:59:36.507Z,8128.00
2018-06-16T11:00:36.302Z,7932.00
2018-06-16T11:01:36.327Z,7820.00
2018-06-16T11:02:36.362Z,7700.00
2018-06-16T11:03:36.414Z,7488.00
2018-06-16T11:04:36.438Z,7328.00
2018-06-16T11:05:36.717Z,7252.00
2018-06-16T11:06:36.504Z,7172.00
2018-06-16T11:07:36.552Z,7104.00
2018-06-16T11:08:36.581Z,7140.00
2018-06-16T11:09:36.617Z,7008.00
2018-06-16T11:10:36.699Z,6764.00
2018-06-16T11:11:36.932Z,6628.00
2018-06-16T11:12:36.720Z,6816.00
2018-06-16T11:13:36.754Z,7004.00
2018-06-16T11:14:36.831Z,7092.00
2018-06-16T11:15:36.822Z,6980.00
2018-06-16T11:16:36.863Z,6924.00
2018-06-16T11:17:37.144Z,6932.00
2018-06-16T11:18:36.931Z,6700.00
2018-06-16T11:19:36.970Z,6584.00
2018-06-16T11:20:37.002Z,6908.00
2018-06-16T11:21:37.046Z,6980.00
2018-06-16T11:22:37.089Z,7424.00
2018-06-16T11:23:37.416Z,7932.00
2018-06-16T11:24:37.144Z,8456.00
2018-06-16T11:25:37.180Z,8700.00
2018-06-16T11:26:37.266Z,8680.00
2018-06-16T11:27:37.298Z,8792.00
2018-06-16T11:28:37.388Z,9252.00
2018-06-16T11:29:37.626Z,9396.00
2018-06-16T11:30:37.376Z,8892.00
2018-06-16T11:31:37.398Z,8532.00
2018-06-16T11:32:37.431Z,8432.00
2018-06-16T11:33:37.471Z,7780.00
2018-06-16T11:34:37.501Z,7276.00
2018-06-16T11:35:37.794Z,7156.00
2018-06-16T11:36:37.572Z,7156.00
2018-06-16T11:37:37.607Z,6768.00
2018-06-16T11:38:37.749Z,6988.00
2018-06-16T11:39:37.679Z,7408.00
2018-06-16T11:40:37.718Z,7732.00
2018-06-16T11:41:38.057Z,7812.00
2018-06-16T11:42:37.787Z,7572.00
2018-06-16T11:43:37.823Z,7128.00
2018-06-16T11:44:37.861Z,7216.00
2018-06-16T11:45:37.894Z,7104.00
2018-06-16T11:46:37.932Z,6724.00
2018-06-16T11:47:37.967Z,6064.00
2018-06-16T11:48:38.285Z,5516.00
2018-06-16T11:49:38.036Z,5424.00
2018-06-16T11:50:38.072Z,5628.00
2018-06-16T11:51:38.107Z,5172.00
2018-06-16T11:52:38.146Z,4912.00
2018-06-16T11:53:38.189Z,4916.00
2018-06-16T11:54:38.217Z,5308.00
2018-06-16T11:55:38.510Z,6080.00
2018-06-16T11:56:38.287Z,7124.00
2018-06-16T11:57:38.351Z,8404.00
2018-06-16T11:58:38.360Z,9500.00
2018-06-16T11:59:38.401Z,10036.00
2018-06-16T12:00:38.440Z,9984.00
2018-06-16T12:01:38.578Z,9264.00
2018-06-16T12:02:38.812Z,7880.00
2018-06-16T12:03:38.536Z,7436.00
2018-06-16T12:04:38.574Z,7112.00
2018-06-16T12:05:38.609Z,7240.00
2018-06-16T12:06:38.643Z,7396.00
2018-06-16T12:07:38.682Z,7392.00
2018-06-16T12:08:38.719Z,8052.00
2018-06-16T12:09:39.060Z,8532.00
2018-06-16T12:10:38.787Z,8520.00
2018-06-16T12:11:38.876Z,8264.00
2018-06-16T12:12:38.875Z,7972.00
2018-06-16T12:13:38.904Z,7196.00
2018-06-16T12:14:38.936Z,6404.00
2018-06-16T12:15:38.978Z,5700.00
2018-06-16T12:16:39.304Z,4940.00
2018-06-16T12:17:39.039Z,4392.00
2018-06-16T12:18:39.089Z,3824.00
2018-06-16T12:19:39.109Z,3396.00
2018-06-16T12:20:39.145Z,3020.00
2018-06-16T12:21:39.183Z,2608.00
2018-06-16T12:22:39.223Z,2384.00
2018-06-16T12:23:39.505Z,2308.00
2018-06-16T12:24:39.304Z,2172.00
2018-06-16T12:25:39.324Z,2052.00
2018-06-16T12:26:39.359Z,1908.00
2018-06-16T12:27:39.397Z,1720.00
2018-06-16T12:28:39.429Z,1568.00
2018-06-16T12:29:39.520Z,1392.00
2018-06-16T12:30:39.760Z,1232.00
2018-06-16T12:31:39.545Z,1020.00
2018-06-16T12:32:39.577Z,880.00
2018-06-16T12:33:39.606Z,808.00
2018-06-16T12:34:39.645Z,776.00
2018-06-16T12:35:39.681Z,768.00
2018-06-16T12:36:39.729Z,784.00
2018-06-16T12:37:40.004Z,800.00
2018-06-16T12:38:39.802Z,808.00
2018-06-16T12:39:39.873Z,796.00
2018-06-16T12:40:39.863Z,792.00